Time;durP1;ratioP1;P1;durP2;ratioP2;P2;SDS_P1;SDS_P2;PMS_P1;PMS_P2;Temp;Humidity;BMP_temperature;BMP_pressure;BME280_temperature;BME280_humidity;BME280_pressure;Samples;Min_cycle;Max_cycle;Signal;HPM_P1;HPM_P2
2023/06/28 00:03:13;;;;;;;1.23;1.08;;;;;;;18.26;46.98;100126.81;10466091;28;20083;-61
2023/06/28 00:08:15;;;;;;;2.30;1.33;;;;;;;18.47;46.62;100124.91;10467999;28;20634;-61
2023/06/28 00:13:18;;;;;;;2.40;1.40;;;;;;;18.63;46.14;100125.19;10468777;28;20527;-61
2023/06/28 00:18:20;;;;;;;2.50;1.23;;;;;;;18.64;46.60;100118.94;10467372;28;20528;-61
2023/06/28 00:23:22;;;;;;;3.13;1.02;;;;;;;18.75;45.97;100126.72;10467059;28;20060;-61
2023/06/28 00:28:24;;;;;;;1.48;0.98;;;;;;;18.76;46.22;100127.56;10469165;28;20207;-61
2023/06/28 00:33:26;;;;;;;2.45;1.27;;;;;;;18.77;46.16;100129.25;10468196;28;20734;-61
2023/06/28 00:38:28;;;;;;;1.83;1.08;;;;;;;18.89;45.76;100123.66;10465555;28;20044;-61
2023/06/28 00:43:30;;;;;;;2.35;1.40;;;;;;;18.90;45.88;100133.31;10465164;28;20657;-61
2023/06/28 00:48:34;;;;;;;2.42;1.10;;;;;;;18.81;46.58;100130.66;10467924;28;20232;-61
2023/06/28 00:53:36;;;;;;;1.88;1.23;;;;;;;18.79;46.07;100127.31;10463296;28;20958;-61
2023/06/28 00:58:38;;;;;;;3.15;1.38;;;;;;;18.82;45.95;100130.50;10464879;28;20436;-61
2023/06/28 01:03:40;;;;;;;1.25;1.00;;;;;;;18.54;45.98;100133.97;10446258;28;20040;-61
2023/06/28 01:08:43;;;;;;;2.10;1.15;;;;;;;18.23;46.90;100149.09;10450963;28;20048;-61
2023/06/28 01:13:47;;;;;;;2.67;1.02;;;;;;;18.26;46.38;100150.66;10464773;28;20127;-61
2023/06/28 01:18:49;;;;;;;1.70;1.10;;;;;;;17.94;46.70;100153.41;10465007;28;20493;-61
2023/06/28 01:23:51;;;;;;;1.27;1.00;;;;;;;18.08;46.66;100161.00;10462757;28;20055;-61
2023/06/28 01:28:54;;;;;;;2.17;1.08;;;;;;;18.12;46.78;100149.16;10464830;28;20044;-61
2023/06/28 01:33:56;;;;;;;1.92;1.10;;;;;;;18.33;46.36;100157.06;10464233;28;20055;-61
2023/06/28 01:39:00;;;;;;;2.47;1.20;;;;;;;18.45;46.62;100158.63;10460630;28;20135;-61
2023/06/28 01:44:02;;;;;;;1.90;1.10;;;;;;;18.41;47.38;100160.72;10463034;28;20049;-61
2023/06/28 01:49:07;;;;;;;2.28;1.30;;;;;;;18.42;47.90;100161.56;10464858;28;20113;-60
2023/06/28 01:54:11;;;;;;;1.35;1.00;;;;;;;18.47;47.54;100161.97;10460572;28;20044;-61
2023/06/28 01:59:14;;;;;;;1.50;1.20;;;;;;;18.34;47.68;100170.16;10460088;28;20530;-61
2023/06/28 02:04:16;;;;;;;1.63;1.10;;;;;;;18.20;48.01;100161.78;10466705;28;20585;-61
2023/06/28 02:09:18;;;;;;;3.00;1.17;;;;;;;18.39;47.73;100167.09;10466760;28;20230;-61
2023/06/28 02:14:20;;;;;;;2.40;1.20;;;;;;;18.47;47.45;100159.31;10471833;28;20259;-61
2023/06/28 02:19:22;;;;;;;1.63;1.23;;;;;;;18.41;47.95;100154.56;10468628;28;20443;-61
2023/06/28 02:24:25;;;;;;;2.03;1.38;;;;;;;18.39;48.25;100152.06;10473339;28;20076;-61
2023/06/28 02:29:28;;;;;;;2.28;1.27;;;;;;;18.41;48.06;100149.28;10472996;28;20099;-61
2023/06/28 02:34:30;;;;;;;1.88;1.20;;;;;;;18.41;48.36;100149.28;10468473;28;20489;-61
2023/06/28 02:39:32;;;;;;;1.10;1.00;;;;;;;18.48;48.23;100150.41;10471830;28;20064;-61
2023/06/28 02:44:34;;;;;;;1.55;1.20;;;;;;;18.40;48.78;100166.97;10469470;28;20105;-61
2023/06/28 02:49:37;;;;;;;2.25;1.27;;;;;;;18.35;48.43;100166.56;10489196;28;20132;-61
2023/06/28 02:54:40;;;;;;;5.63;1.30;;;;;;;18.34;48.55;100166.69;10476583;28;20533;-61
2023/06/28 02:59:42;;;;;;;1.38;1.02;;;;;;;18.34;48.57;100164.03;10461280;28;20599;-61
2023/06/28 03:04:44;;;;;;;2.15;1.13;;;;;;;18.37;48.33;100163.75;10488866;28;20048;-61
2023/06/28 03:09:47;;;;;;;1.77;1.10;;;;;;;18.40;48.07;100169.63;10466268;28;20090;-61
2023/06/28 03:14:49;;;;;;;1.83;1.15;;;;;;;18.35;48.14;100168.34;10469485;28;20053;-61
2023/06/28 03:19:51;;;;;;;1.52;1.10;;;;;;;18.38;48.51;100170.75;10470005;28;20531;-61
2023/06/28 03:24:53;;;;;;;2.38;1.20;;;;;;;18.27;48.52;100171.69;10488141;28;20486;-61
2023/06/28 03:29:56;;;;;;;2.53;1.30;;;;;;;18.24;47.91;100173.78;10469038;28;20501;-61
2023/06/28 03:34:59;;;;;;;1.88;1.10;;;;;;;18.15;47.90;100172.72;10466373;28;20055;-60
2023/06/28 03:40:01;;;;;;;3.22;1.00;;;;;;;18.17;47.60;100173.44;10467177;28;20052;-60
2023/06/28 03:45:04;;;;;;;1.48;1.00;;;;;;;18.19;47.38;100166.22;10469076;28;20155;-60
2023/06/28 03:50:06;;;;;;;3.15;1.30;;;;;;;18.12;47.58;100169.50;10466514;28;20051;-60
2023/06/28 03:55:09;;;;;;;2.70;1.35;;;;;;;18.11;47.18;100173.97;10469209;28;20068;-60
2023/06/28 04:00:12;;;;;;;4.43;1.02;;;;;;;18.15;47.36;100171.88;10467575;28;20054;-61
2023/06/28 04:05:14;;;;;;;2.00;1.10;;;;;;;18.15;47.18;100174.53;10467972;28;20571;-60
2023/06/28 04:10:16;;;;;;;2.35;1.13;;;;;;;17.98;47.50;100188.38;10449930;28;20173;-60
2023/06/28 04:15:18;;;;;;;2.22;1.30;;;;;;;17.87;47.75;100167.31;10468704;28;20064;-60
2023/06/28 04:20:20;;;;;;;2.05;1.05;;;;;;;17.85;47.62;100168.25;10470678;28;20128;-61
2023/06/28 04:25:22;;;;;;;2.53;0.93;;;;;;;17.78;47.78;100180.38;10466716;28;20131;-61
2023/06/28 04:30:24;;;;;;;1.92;1.08;;;;;;;17.81;47.64;100174.78;10467384;28;20151;-60
2023/06/28 04:35:27;;;;;;;5.45;1.30;;;;;;;17.90;47.21;100182.91;10467828;28;20059;-60
2023/06/28 04:40:32;;;;;;;2.58;1.27;;;;;;;18.04;46.89;100182.56;10467988;28;21141;-60
2023/06/28 04:45:36;;;;;;;1.60;0.98;;;;;;;18.18;46.25;100179.56;10466183;28;20067;-60
2023/06/28 04:50:38;;;;;;;2.33;1.20;;;;;;;18.25;46.31;100178.94;10466014;28;20049;-60
2023/06/28 04:55:43;;;;;;;1.88;1.10;;;;;;;18.37;45.92;100175.19;10468103;28;20056;-61
2023/06/28 05:00:45;;;;;;;2.53;1.13;;;;;;;18.47;46.05;100176.06;10467190;28;20041;-60
2023/06/28 05:05:47;;;;;;;2.15;1.05;;;;;;;18.63;45.82;100168.41;10467070;28;20045;-60
2023/06/28 05:10:49;;;;;;;1.67;1.15;;;;;;;18.75;45.71;100174.44;10464893;28;20131;-61
2023/06/28 05:15:52;;;;;;;1.88;1.08;;;;;;;18.65;45.98;100170.94;10465570;28;20040;-60
2023/06/28 05:20:54;;;;;;;2.33;1.30;;;;;;;18.54;46.36;100165.75;10463977;28;20124;-61
2023/06/28 05:25:56;;;;;;;2.40;1.10;;;;;;;18.63;46.26;100164.94;10466011;28;20064;-60
2023/06/28 05:30:58;;;;;;;1.45;1.00;;;;;;;18.77;45.97;100164.53;10465139;28;20047;-61
2023/06/28 05:36:00;;;;;;;3.25;1.15;;;;;;;18.77;45.90;100166.38;10464466;28;20048;-60
2023/06/28 05:41:13;;;;;;;1.42;1.10;;;;;;;18.86;46.07;100155.75;10464913;28;20461;-60
2023/06/28 05:46:16;;;;;;;1.73;1.10;;;;;;;18.83;45.77;100161.31;10468151;28;20076;-60
2023/06/28 05:51:18;;;;;;;3.65;1.20;;;;;;;18.88;46.04;100161.75;10458102;28;20488;-60
2023/06/28 05:56:20;;;;;;;1.90;1.10;;;;;;;19.04;45.59;100167.38;10451821;28;20040;-60
2023/06/28 06:01:24;;;;;;;2.15;0.90;;;;;;;19.36;45.67;100159.94;10459980;28;20067;-60
2023/06/28 06:06:26;;;;;;;1.92;1.20;;;;;;;19.40;45.11;100165.78;10458911;28;20045;-59
2023/06/28 06:11:29;;;;;;;1.58;1.10;;;;;;;19.38;45.02;100162.44;10460083;28;20039;-60
2023/06/28 06:16:31;;;;;;;1.83;0.88;;;;;;;19.38;45.08;100159.78;10429117;28;20063;-61
2023/06/28 06:21:33;;;;;;;3.25;1.25;;;;;;;19.30;45.02;100157.88;10459590;28;21424;-61
2023/06/28 06:26:35;;;;;;;1.77;1.05;;;;;;;19.35;45.03;100160.94;10460772;28;20041;-60
2023/06/28 06:31:37;;;;;;;1.33;0.90;;;;;;;19.34;45.03;100172.50;10460323;28;20040;-60
2023/06/28 06:36:39;;;;;;;2.28;1.08;;;;;;;19.42;44.77;100164.69;10461702;28;20044;-61
2023/06/28 06:41:41;;;;;;;2.10;1.08;;;;;;;19.42;44.83;100161.19;10461627;28;20040;-60
2023/06/28 06:46:45;;;;;;;1.67;1.00;;;;;;;19.64;44.07;100165.34;10457541;28;20051;-61
2023/06/28 06:51:47;;;;;;;1.67;1.05;;;;;;;19.85;44.17;100172.16;10462148;28;20040;-60
2023/06/28 06:56:49;;;;;;;3.08;0.98;;;;;;;19.99;43.52;100169.03;10461673;28;20044;-60
2023/06/28 07:01:52;;;;;;;1.52;0.98;;;;;;;20.00;43.61;100164.56;10458977;28;20053;-60
2023/06/28 07:06:55;;;;;;;2.60;0.98;;;;;;;20.30;42.76;100166.94;10461834;28;20122;-61
2023/06/28 07:11:57;;;;;;;1.10;0.80;;;;;;;20.34;42.54;100165.66;10460069;28;20614;-60
2023/06/28 07:16:59;;;;;;;1.20;0.90;;;;;;;20.68;42.42;100172.03;10461646;28;20122;-61
2023/06/28 07:22:02;;;;;;;2.25;1.13;;;;;;;21.16;41.69;100173.50;10457465;28;20049;-62
2023/06/28 07:27:04;;;;;;;1.40;1.00;;;;;;;21.48;41.11;100163.97;10444165;28;20091;-61
2023/06/28 07:32:07;;;;;;;1.25;0.98;;;;;;;22.08;40.49;100159.56;10462188;28;20588;-62
2023/06/28 07:37:09;;;;;;;4.32;1.00;;;;;;;23.29;38.58;100147.31;10456793;28;21115;-63
2023/06/28 07:42:12;;;;;;;1.27;1.00;;;;;;;25.38;35.83;100140.25;10466450;28;20463;-63
2023/06/28 07:47:14;;;;;;;1.38;1.00;;;;;;;25.53;34.10;100134.94;10459550;28;20056;-63
2023/06/28 07:52:17;;;;;;;2.10;1.10;;;;;;;25.36;33.69;100133.41;10468410;28;20147;-62
2023/06/28 07:57:19;;;;;;;1.38;0.82;;;;;;;25.00;34.11;100141.19;10465089;28;20128;-62
2023/06/28 08:02:21;;;;;;;3.28;1.20;;;;;;;24.72;34.18;100137.38;10467293;28;20127;-62
2023/06/28 08:07:23;;;;;;;1.70;0.90;;;;;;;24.12;34.34;100140.69;10463935;28;20048;-59
2023/06/28 08:12:25;;;;;;;1.40;0.98;;;;;;;23.32;35.42;100139.00;10468290;28;20060;-60
2023/06/28 08:17:27;;;;;;;1.65;0.80;;;;;;;23.06;34.98;100150.84;10465143;28;20053;-62
2023/06/28 08:22:29;;;;;;;1.52;0.90;;;;;;;23.03;35.28;100149.34;10465984;28;20440;-62
2023/06/28 08:27:31;;;;;;;1.83;1.00;;;;;;;23.23;35.24;100145.31;10464723;28;20405;-62
2023/06/28 08:32:35;;;;;;;1.50;1.02;;;;;;;23.17;34.88;100146.00;10461473;28;20737;-61
2023/06/28 08:37:38;;;;;;;0.80;0.80;;;;;;;23.16;34.32;100140.84;10464276;28;20048;-62
2023/06/28 08:42:41;;;;;;;2.58;1.00;;;;;;;23.40;34.69;100141.69;10467524;28;20045;-62
2023/06/28 08:47:44;;;;;;;0.90;0.80;;;;;;;23.47;33.96;100144.53;10461522;28;20131;-61
2023/06/28 08:52:50;;;;;;;1.75;1.27;;;;;;;23.85;33.11;100127.75;10440467;28;20048;-61
2023/06/28 08:57:53;;;;;;;1.55;0.98;;;;;;;25.28;32.11;100123.59;10464168;28;20033;-61
2023/06/28 09:02:56;;;;;;;1.20;0.80;;;;;;;25.85;30.15;100127.34;10464285;28;20048;-61
2023/06/28 09:08:00;;;;;;;1.95;1.13;;;;;;;26.17;30.25;100131.53;10461929;28;20459;-61
2023/06/28 09:13:03;;;;;;;1.50;0.93;;;;;;;26.27;29.79;100126.72;10449120;28;20063;-61
2023/06/28 09:18:06;;;;;;;2.88;1.13;;;;;;;25.45;30.28;100130.47;10457207;28;20988;-61
2023/06/28 09:23:09;;;;;;;1.15;0.90;;;;;;;25.61;30.20;100124.94;10459660;28;20563;-61
2023/06/28 09:28:11;;;;;;;2.20;1.15;;;;;;;25.67;29.58;100129.56;10461161;28;20052;-61
2023/06/28 09:33:28;;;;;;;1.08;0.90;;;;;;;25.96;29.72;100128.75;10464652;28;20048;-59
2023/06/28 09:38:31;;;;;;;2.13;1.00;;;;;;;27.05;28.82;100123.22;10457596;28;20815;-60
2023/06/28 09:43:34;;;;;;;1.83;1.10;;;;;;;28.21;27.41;100110.84;10458829;28;20408;-60
2023/06/28 09:48:39;;;;;;;2.70;1.10;;;;;;;29.36;26.46;100106.91;10456626;28;20192;-60
2023/06/28 09:53:56;;;;;;;1.80;1.05;;;;;;;29.09;25.08;100105.28;10464594;28;20576;-60
2023/06/28 09:59:00;;;;;;;2.05;1.20;;;;;;;28.56;26.96;100112.44;10461306;28;20527;-60
2023/06/28 10:04:07;;;;;;;1.85;1.10;;;;;;;28.42;26.33;100121.47;10463747;28;20452;-60
2023/06/28 10:09:17;;;;;;;1.55;1.13;;;;;;;28.70;26.88;100114.13;10459557;28;20041;-60
2023/06/28 10:14:21;;;;;;;3.92;1.15;;;;;;;28.27;27.32;100112.72;10460259;28;20952;-60
2023/06/28 10:19:23;;;;;;;1.52;0.90;;;;;;;27.92;27.55;100111.09;10457397;28;20044;-60
2023/06/28 10:24:31;;;;;;;2.10;1.10;;;;;;;28.04;27.10;100107.66;10462123;28;20051;-60
2023/06/28 10:29:35;;;;;;;2.50;1.30;;;;;;;27.60;27.88;100109.03;10459013;28;20712;-60
2023/06/28 10:34:38;;;;;;;1.92;1.08;;;;;;;27.29;28.46;100112.94;10463739;28;20127;-60
2023/06/28 10:39:40;;;;;;;1.48;1.05;;;;;;;27.12;28.85;100108.84;10457855;28;20040;-60
2023/06/28 10:44:56;;;;;;;2.53;1.08;;;;;;;26.81;29.01;100120.94;10460518;28;20147;-60
2023/06/28 10:50:08;;;;;;;1.83;1.05;;;;;;;26.60;29.58;100116.41;10455514;28;20781;-60
2023/06/28 10:55:11;;;;;;;3.75;1.02;;;;;;;26.72;29.43;100105.97;10460559;28;20488;-60
2023/06/28 11:00:46;;;;;;;2.50;1.17;;;;;;;27.08;28.71;100099.50;10458455;28;20049;-60
2023/06/28 11:05:48;;;;;;;1.35;0.98;;;;;;;26.49;30.06;100101.59;10460111;28;20040;-60
2023/06/28 11:10:55;;;;;;;2.97;1.00;;;;;;;26.62;29.82;100092.88;10460248;28;20094;-60
2023/06/28 11:16:11;;;;;;;2.08;1.00;;;;;;;26.59;29.85;100094.09;10467118;28;20143;-60
2023/06/28 11:21:15;;;;;;;0.88;0.85;;;;;;;26.54;30.08;100088.44;10465993;28;20076;-60
2023/06/28 11:26:38;;;;;;;1.45;1.10;;;;;;;26.74;29.37;100091.34;10468103;28;20044;-60
2023/06/28 11:31:41;;;;;;;0.88;0.82;;;;;;;27.47;28.68;100075.69;10465683;28;20075;-60
2023/06/28 11:36:44;;;;;;;1.90;1.00;;;;;;;27.29;29.05;100080.72;10467789;28;20044;-60
2023/06/28 11:41:46;;;;;;;1.38;0.80;;;;;;;27.01;29.17;100090.59;10466283;28;20048;-62
2023/06/28 11:46:49;;;;;;;1.45;0.80;;;;;;;26.83;29.10;100079.47;10466776;28;20093;-60
2023/06/28 11:51:52;;;;;;;1.15;0.80;;;;;;;27.14;28.63;100082.66;10462479;28;20419;-60
2023/06/28 11:56:56;;;;;;;4.30;1.30;;;;;;;27.41;28.89;100083.69;10465607;28;20137;-61
2023/06/28 12:02:06;;;;;;;1.38;0.90;;;;;;;27.44;28.72;100078.75;10461821;28;20259;-61
2023/06/28 12:07:08;;;;;;;1.70;0.85;;;;;;;27.61;28.99;100081.09;10463526;28;20172;-60
2023/06/28 12:12:10;;;;;;;1.92;1.10;;;;;;;27.71;28.97;100078.94;10466389;28;20048;-60
2023/06/28 12:17:12;;;;;;;1.35;0.90;;;;;;;27.82;28.68;100073.00;10467054;28;20533;-62
2023/06/28 12:22:14;;;;;;;2.60;1.10;;;;;;;27.79;28.67;100084.16;10467808;28;20151;-60
2023/06/28 12:27:17;;;;;;;1.27;0.90;;;;;;;27.69;28.44;100081.78;10463688;28;20498;-60
2023/06/28 12:32:23;;;;;;;2.25;0.98;;;;;;;27.89;28.12;100071.19;10466243;28;20059;-60
2023/06/28 12:37:42;;;;;;;1.90;0.85;;;;;;;28.36;27.56;100073.84;10464215;28;20048;-61
2023/06/28 12:42:44;;;;;;;2.20;1.00;;;;;;;28.40;27.79;100060.84;10464833;28;20045;-61
2023/06/28 12:47:46;;;;;;;1.17;0.70;;;;;;;27.93;28.05;100050.94;10461055;28;20064;-61
2023/06/28 12:52:49;;;;;;;0.95;0.70;;;;;;;27.84;28.37;100052.13;10465852;28;20048;-61
2023/06/28 12:57:51;;;;;;;2.30;1.20;;;;;;;27.18;29.08;100056.22;10464886;28;20044;-61
2023/06/28 13:02:53;;;;;;;1.65;0.95;;;;;;;26.55;29.61;100052.56;10467789;28;20489;-60
2023/06/28 13:07:55;;;;;;;2.30;0.82;;;;;;;26.80;29.82;100049.50;10465497;28;20958;-61
2023/06/28 13:12:57;;;;;;;1.90;0.70;;;;;;;26.62;29.88;100045.44;10467076;28;20080;-61
2023/06/28 13:17:59;;;;;;;3.13;0.98;;;;;;;26.96;29.53;100036.63;10461571;28;20048;-61
2023/06/28 13:23:02;;;;;;;1.67;1.00;;;;;;;26.84;29.91;100048.91;10460620;28;20048;-61
2023/06/28 13:28:04;;;;;;;1.55;1.05;;;;;;;26.58;30.53;100037.97;10454634;28;20163;-61
2023/06/28 13:33:06;;;;;;;1.85;1.08;;;;;;;26.73;30.53;100035.22;10454233;28;20045;-61
2023/06/28 13:38:08;;;;;;;2.33;1.10;;;;;;;26.44;30.80;100030.78;10459446;28;20515;-61
2023/06/28 13:43:10;;;;;;;1.83;1.30;;;;;;;26.50;30.60;100035.38;10461655;28;20107;-61
2023/06/28 13:48:12;;;;;;;1.98;1.10;;;;;;;26.34;30.82;100032.94;10458004;28;20520;-60
2023/06/28 13:53:15;;;;;;;3.97;1.10;;;;;;;26.64;30.63;100029.13;10460026;28;20445;-61
2023/06/28 13:58:17;;;;;;;2.15;1.20;;;;;;;26.78;30.84;100025.53;10456075;28;20049;-61
2023/06/28 14:03:19;;;;;;;1.25;0.80;;;;;;;26.61;30.99;100013.41;10477199;28;20138;-61
2023/06/28 14:08:21;;;;;;;1.40;0.90;;;;;;;27.05;31.02;100015.84;10462020;28;20130;-61
2023/06/28 14:13:24;;;;;;;0.80;0.80;;;;;;;27.55;30.27;100004.81;10462486;28;20048;-60
2023/06/28 14:18:26;;;;;;;1.42;0.90;;;;;;;27.89;30.03;100006.69;10457506;28;20564;-61
2023/06/28 14:23:28;;;;;;;2.00;1.00;;;;;;;27.90;29.86;100008.31;10462800;28;20862;-61
2023/06/28 14:28:30;;;;;;;1.25;1.00;;;;;;;27.46;30.44;100009.53;10461888;28;20192;-60
2023/06/28 14:33:32;;;;;;;1.73;1.08;;;;;;;27.37;30.71;100018.78;10461840;28;20048;-62
2023/06/28 14:38:34;;;;;;;2.78;1.35;;;;;;;27.47;30.61;100015.72;10445462;28;20499;-59
2023/06/28 14:43:36;;;;;;;2.28;1.20;;;;;;;27.12;31.15;100009.50;10462807;28;20076;-60
2023/06/28 14:48:38;;;;;;;1.70;1.17;;;;;;;27.20;31.01;100013.94;10467935;28;20052;-60
2023/06/28 14:53:41;;;;;;;1.58;0.90;;;;;;;27.13;31.30;100008.47;10469301;28;20646;-59
2023/06/28 14:58:43;;;;;;;1.55;0.98;;;;;;;27.25;31.30;100014.16;10467429;28;20123;-59
2023/06/28 15:03:45;;;;;;;1.63;1.15;;;;;;;27.40;30.86;100013.00;10470834;28;20632;-59
2023/06/28 15:08:47;;;;;;;1.20;1.00;;;;;;;27.42;30.75;100002.09;10470581;28;20043;-59
2023/06/28 15:13:49;;;;;;;1.20;0.85;;;;;;;27.62;30.77;100000.31;10469645;28;21836;-59
2023/06/28 15:18:53;;;;;;;3.53;1.60;;;;;;;27.87;30.86;100001.47;10467603;28;21555;-59
2023/06/28 15:23:55;;;;;;;4.95;1.20;;;;;;;27.91;31.08;99999.25;10467583;28;20048;-60
2023/06/28 15:29:00;;;;;;;3.05;1.30;;;;;;;27.73;31.28;99993.59;10469260;28;20052;-60
2023/06/28 15:34:04;;;;;;;2.00;1.23;;;;;;;27.39;31.58;99997.94;10470023;28;20626;-59
2023/06/28 15:39:06;;;;;;;2.00;1.20;;;;;;;27.01;31.85;99991.25;10464797;28;20868;-59
2023/06/28 15:44:08;;;;;;;1.58;1.10;;;;;;;26.69;32.05;99989.13;10470267;28;20041;-60
2023/06/28 15:49:10;;;;;;;2.05;0.93;;;;;;;26.50;32.40;99992.44;10467528;28;20653;-62
2023/06/28 15:54:12;;;;;;;1.95;1.05;;;;;;;26.41;32.47;99993.59;10485037;28;20053;-60
2023/06/28 15:59:14;;;;;;;1.25;1.00;;;;;;;26.67;32.43;99972.41;10476579;28;20045;-60
2023/06/28 16:04:17;;;;;;;2.53;1.25;;;;;;;26.52;32.65;99983.19;10465509;28;20068;-60
2023/06/28 16:09:20;;;;;;;1.15;1.00;;;;;;;26.40;32.80;99991.94;10465918;28;20163;-60
2023/06/28 16:14:22;;;;;;;1.95;1.00;;;;;;;26.50;32.86;99987.09;10467734;28;20048;-62
2023/06/28 16:19:26;;;;;;;8.77;1.50;;;;;;;26.36;33.14;99980.78;10465874;28;20044;-63
2023/06/28 16:24:29;;;;;;;2.53;1.27;;;;;;;26.26;33.13;99982.91;10467576;28;20048;-62
2023/06/28 16:29:31;;;;;;;1.80;1.20;;;;;;;26.26;33.22;99972.19;10465351;28;20048;-62
2023/06/28 16:34:33;;;;;;;0.98;0.85;;;;;;;26.32;33.16;99959.91;10467881;28;20055;-60
2023/06/28 16:39:36;;;;;;;2.22;1.25;;;;;;;26.34;33.53;99964.06;10464933;28;20056;-60
2023/06/28 16:44:38;;;;;;;1.58;1.20;;;;;;;26.45;33.60;99973.41;10466441;28;20856;-60
2023/06/28 16:49:40;;;;;;;2.35;1.00;;;;;;;26.50;33.50;99966.47;10463506;28;20135;-60
2023/06/28 16:54:42;;;;;;;3.65;1.10;;;;;;;26.43;33.41;99964.72;10462637;28;20057;-60
2023/06/28 16:59:45;;;;;;;1.80;1.20;;;;;;;26.37;33.62;99962.81;10461036;28;20575;-60
2023/06/28 17:04:48;;;;;;;4.50;1.30;;;;;;;26.36;33.59;99964.69;10466734;28;20520;-60
2023/06/28 17:09:51;;;;;;;1.73;1.10;;;;;;;26.32;33.78;99968.75;10462082;28;20059;-60
2023/06/28 17:14:53;;;;;;;2.15;1.10;;;;;;;26.32;33.75;99967.94;10457983;28;20198;-60
2023/06/28 17:19:55;;;;;;;1.88;1.10;;;;;;;26.14;33.80;99971.03;10463876;28;20695;-60
2023/06/28 17:24:57;;;;;;;1.52;1.00;;;;;;;26.15;34.25;99969.19;10462110;28;20525;-60
2023/06/28 17:29:59;;;;;;;2.15;1.20;;;;;;;26.08;34.18;99974.50;10455008;28;20067;-60
2023/06/28 17:35:01;;;;;;;1.83;1.23;;;;;;;26.01;34.40;99975.44;10464244;28;20101;-61
2023/06/28 17:40:05;;;;;;;1.17;0.98;;;;;;;26.22;34.38;99976.28;10459986;28;20136;-61
2023/06/28 17:45:08;;;;;;;2.00;1.20;;;;;;;26.33;34.25;99981.16;10462987;28;20139;-61
2023/06/28 17:50:10;;;;;;;1.73;1.10;;;;;;;26.12;34.64;99977.63;10456262;28;20765;-61
2023/06/28 17:55:12;;;;;;;1.45;1.08;;;;;;;26.17;34.56;99980.56;10454395;28;20044;-61
2023/06/28 18:00:14;;;;;;;1.52;1.20;;;;;;;26.12;34.52;99977.63;10449757;28;20091;-61
2023/06/28 18:05:16;;;;;;;1.45;0.95;;;;;;;26.12;34.83;99988.38;10463967;28;20412;-61
2023/06/28 18:10:18;;;;;;;1.33;1.00;;;;;;;25.97;34.93;99983.03;10460813;28;20076;-61
2023/06/28 18:15:25;;;;;;;2.30;1.08;;;;;;;25.77;35.17;99987.31;10463912;28;20405;-61
2023/06/28 18:20:27;;;;;;;2.88;1.00;;;;;;;25.53;35.64;99988.44;10459288;28;20516;-61
2023/06/28 18:25:29;;;;;;;1.67;1.10;;;;;;;25.40;36.03;99998.16;10463528;28;20056;-61
2023/06/28 18:30:31;;;;;;;1.98;1.00;;;;;;;25.23;36.00;100000.13;10460393;28;20080;-61
2023/06/28 18:35:33;;;;;;;1.88;1.20;;;;;;;25.23;36.08;99994.78;10465493;28;20474;-62
2023/06/28 18:40:36;;;;;;;1.77;1.00;;;;;;;25.24;36.28;99998.31;10462821;28;20102;-62
2023/06/28 18:45:42;;;;;;;1.17;1.00;;;;;;;25.20;36.23;100000.53;10446642;28;20210;-62
2023/06/28 18:50:45;;;;;;;1.13;0.90;;;;;;;24.98;36.48;99994.22;10455465;28;20448;-62
2023/06/28 18:55:47;;;;;;;2.03;1.10;;;;;;;24.62;36.98;99989.66;10460848;28;20075;-62
2023/06/28 19:00:50;;;;;;;3.25;1.20;;;;;;;24.32;37.15;99991.41;10456595;28;20500;-62
2023/06/28 19:05:52;;;;;;;1.63;0.98;;;;;;;24.05;37.73;99986.56;10464279;28;20056;-62
2023/06/28 19:10:54;;;;;;;1.60;1.20;;;;;;;23.83;38.25;99984.69;10455948;28;20049;-62
2023/06/28 19:15:57;;;;;;;1.25;0.90;;;;;;;23.72;38.67;99990.41;10462774;28;20264;-62
2023/06/28 19:20:59;;;;;;;1.55;1.08;;;;;;;23.63;39.19;99991.47;10460176;28;20051;-61
2023/06/28 19:26:01;;;;;;;3.05;1.10;;;;;;;23.43;39.35;99999.06;10462609;28;20053;-61
2023/06/28 19:31:03;;;;;;;2.00;1.20;;;;;;;23.14;40.26;99996.94;10458618;28;20091;-61
2023/06/28 19:36:07;;;;;;;2.33;1.20;;;;;;;22.85;40.98;99991.31;10469376;28;20535;-60
2023/06/28 19:41:09;;;;;;;1.10;0.90;;;;;;;22.70;41.18;99999.13;10464764;28;20044;-60
2023/06/28 19:46:11;;;;;;;1.55;1.10;;;;;;;22.52;41.72;100005.59;10469799;28;20169;-60
2023/06/28 19:51:14;;;;;;;2.90;1.20;;;;;;;22.29;42.16;100012.59;10464135;28;20480;-60
2023/06/28 19:56:16;;;;;;;1.58;1.08;;;;;;;22.33;42.26;100009.41;10466511;28;20044;-60
2023/06/28 20:01:18;;;;;;;1.58;1.05;;;;;;;22.31;42.73;100016.75;10463205;28;20044;-60
2023/06/28 20:06:20;;;;;;;1.80;1.10;;;;;;;22.26;42.99;100019.09;10467484;28;20067;-60
2023/06/28 20:11:22;;;;;;;1.38;1.10;;;;;;;22.22;43.29;100020.41;10470424;28;20091;-60
2023/06/28 20:16:24;;;;;;;2.80;1.20;;;;;;;22.20;43.58;100021.56;10471526;28;20052;-60
2023/06/28 20:21:26;;;;;;;1.75;1.13;;;;;;;22.09;43.50;100020.03;10470294;28;20563;-60
2023/06/28 20:26:28;;;;;;;2.83;1.35;;;;;;;22.08;43.79;100026.38;10470404;28;20060;-60
2023/06/28 20:31:32;;;;;;;1.70;1.10;;;;;;;22.01;44.14;100024.47;10471853;28;20131;-60
2023/06/28 20:36:35;;;;;;;2.95;1.40;;;;;;;21.96;44.23;100027.63;10471119;28;20504;-59
2023/06/28 20:41:40;;;;;;;2.08;1.30;;;;;;;21.92;44.44;100027.09;10469324;28;20127;-60
2023/06/28 20:46:42;;;;;;;1.33;0.90;;;;;;;21.92;44.42;100023.63;10470014;28;20235;-60
2023/06/28 20:51:44;;;;;;;1.95;1.20;;;;;;;21.90;44.68;100025.63;10469511;28;20074;-61
2023/06/28 20:56:46;;;;;;;2.25;1.10;;;;;;;21.78;44.97;100013.59;10451134;28;20439;-60
2023/06/28 21:01:48;;;;;;;1.58;1.02;;;;;;;21.82;44.93;100020.28;10467575;28;20048;-60
2023/06/28 21:06:50;;;;;;;2.25;1.13;;;;;;;21.63;45.50;100016.03;10470069;28;20475;-60
2023/06/28 21:11:52;;;;;;;1.95;1.17;;;;;;;21.52;45.67;100018.13;10470011;28;20045;-60
2023/06/28 21:16:54;;;;;;;2.30;1.17;;;;;;;21.63;45.79;100021.38;10469385;28;20056;-60
2023/06/28 21:21:56;;;;;;;1.83;1.20;;;;;;;21.74;45.47;100017.59;10453164;28;20040;-59
2023/06/28 21:26:58;;;;;;;2.08;1.25;;;;;;;21.71;45.60;100020.56;10462422;28;20419;-60
2023/06/28 21:32:00;;;;;;;2.15;1.38;;;;;;;21.69;45.82;100019.88;10464622;28;20048;-60
2023/06/28 21:37:03;;;;;;;2.03;1.10;;;;;;;21.66;46.00;100018.38;10467294;28;20040;-59
2023/06/28 21:42:06;;;;;;;2.20;1.27;;;;;;;21.61;46.23;100012.69;10463728;28;20514;-60
2023/06/28 21:47:08;;;;;;;1.90;1.20;;;;;;;21.51;46.46;100021.78;10467174;28;20048;-59
2023/06/28 21:52:12;;;;;;;1.92;1.08;;;;;;;21.51;46.63;100009.34;10467437;28;20059;-59
2023/06/28 21:57:14;;;;;;;1.85;1.20;;;;;;;21.43;46.53;100013.78;10465918;28;20045;-59
2023/06/28 22:02:16;;;;;;;2.50;1.35;;;;;;;21.34;47.05;100017.38;10464290;28;20052;-59
2023/06/28 22:07:19;;;;;;;1.75;1.10;;;;;;;20.71;47.47;100017.59;10467089;28;20141;-59
2023/06/28 22:12:25;;;;;;;1.70;1.20;;;;;;;20.59;48.23;100010.84;10465001;28;20151;-59
2023/06/28 22:17:28;;;;;;;2.22;1.17;;;;;;;20.80;47.87;100014.03;10468317;28;20056;-59
2023/06/28 22:22:31;;;;;;;2.53;1.50;;;;;;;20.84;47.81;100023.34;10464685;28;20114;-59
2023/06/28 22:27:33;;;;;;;1.88;1.17;;;;;;;20.88;48.00;100019.41;10467174;28;20067;-59
2023/06/28 22:32:41;;;;;;;2.83;1.50;;;;;;;20.96;48.82;100024.78;10467832;28;20126;-61
2023/06/28 22:37:43;;;;;;;1.55;1.10;;;;;;;20.96;48.41;100021.28;10456448;28;20109;-61
2023/06/28 22:42:46;;;;;;;2.30;1.30;;;;;;;20.94;48.46;100020.59;10467002;28;20106;-61
2023/06/28 22:47:48;;;;;;;2.80;1.38;;;;;;;20.88;48.69;100018.56;10467776;28;20123;-61
2023/06/28 22:52:50;;;;;;;1.55;1.30;;;;;;;20.88;48.56;100019.41;10464177;28;20288;-61
2023/06/28 22:57:52;;;;;;;1.98;1.23;;;;;;;20.88;48.61;100018.56;10467479;28;20048;-61
2023/06/28 23:02:54;;;;;;;2.03;1.23;;;;;;;20.85;48.74;100010.88;10466274;28;20094;-62
2023/06/28 23:07:56;;;;;;;3.63;1.40;;;;;;;20.48;49.22;100008.38;10457530;28;20044;-61
2023/06/28 23:12:58;;;;;;;2.47;1.40;;;;;;;20.32;49.90;100002.94;10473201;28;20062;-59
2023/06/28 23:18:01;;;;;;;2.53;1.35;;;;;;;20.21;49.97;100008.47;10475293;28;20152;-59